[2025-02-08 00:00:00, 2025-02-08 23:59:59] previous next
| time | temperature | air pressure | humidity | solar radiation | wind speed |
|---|---|---|---|---|---|
| 2025-02-08 08:37:07 | 5.2 | 1010.7 | 82.0 | 45.4 | 0.1 |
| 2025-02-08 09:02:59 | 5.2 | 1010.7 | 83.0 | 45.0 | 1.3 |
| 2025-02-08 09:22:58 | 7.6 | 1010.7 | 75.0 | 64.8 | 0.6 |
| 2025-02-08 09:42:59 | 10.2 | 1011.0 | 70.0 | 54.1 | 1.4 |
| 2025-02-08 10:02:58 | 10.2 | 1010.7 | 68.0 | 47.2 | 2.2 |
| 2025-02-08 10:22:58 | 10.3 | 1011.0 | 66.0 | 46.4 | 3.2 |
| 2025-02-08 10:42:58 | 11.1 | 1011.0 | 66.0 | 76.5 | 2.2 |
| 2025-02-08 11:02:59 | 12.7 | 1011.4 | 61.0 | 87.3 | 2.5 |
| 2025-02-08 11:22:59 | 13.1 | 1011.7 | 59.0 | 140.3 | 5.6 |
| 2025-02-08 11:42:59 | 13.5 | 1011.7 | 60.0 | 193.4 | 4.2 |
| 2025-02-08 12:02:58 | 12.5 | 1011.7 | 64.0 | 87.5 | 1.5 |
| 2025-02-08 12:22:59 | 13.5 | 1011.4 | 63.0 | 331.7 | 3.2 |
| 2025-02-08 12:43:00 | 13.4 | 1011.7 | 62.0 | 132.4 | 1.0 |
| 2025-02-08 13:02:58 | 13.8 | 1011.7 | 62.0 | 238.0 | 1.5 |
| 2025-02-08 13:22:58 | 13.4 | 1011.7 | 62.0 | 201.3 | 1.8 |
| 2025-02-08 13:42:58 | 13.3 | 1011.7 | 61.0 | 164.2 | 2.2 |
| 2025-02-08 14:02:59 | 13.0 | 1011.7 | 63.0 | 100.3 | 1.3 |
| 2025-02-08 14:25:06 | 12.7 | 1012.0 | 64.0 | 0.0 | 0.0 |
| 2025-02-08 14:49:04 | 12.2 | 1012.4 | 65.0 | 0.0 | 0.0 |
CSV export: /station/IWELLEN5/data?period=20250208T000000/20250208T235959&format=csv&tz=GMT